createdAt,value
2023-04-16T00:01:28.736Z,100482.05
2023-04-16T00:03:56.592Z,100478.04
2023-04-16T00:06:24.363Z,100482.35
2023-04-16T00:08:51.861Z,100490.06
2023-04-16T00:11:19.498Z,100488.43
2023-04-16T00:13:47.069Z,100497.52
2023-04-16T00:16:15.155Z,100496.67
2023-04-16T00:18:42.707Z,100497.16
2023-04-16T00:21:10.376Z,100495.11
2023-04-16T00:23:38.184Z,100507.10
2023-04-16T00:26:05.791Z,100511.15
2023-04-16T00:28:32.966Z,100506.89
2023-04-16T00:31:01.533Z,100509.20
2023-04-16T00:33:30.351Z,100514.01
2023-04-16T00:35:58.422Z,100516.39
2023-04-16T00:38:29.839Z,100504.55
2023-04-16T00:40:58.363Z,100511.73
2023-04-16T00:43:26.608Z,100507.97
2023-04-16T00:45:57.081Z,100506.60
2023-04-16T00:48:27.551Z,100512.02
2023-04-16T00:50:55.616Z,100505.34
2023-04-16T00:53:23.592Z,100509.60
2023-04-16T00:55:51.451Z,100511.42
2023-04-16T00:58:19.371Z,100514.35
2023-04-16T01:00:46.798Z,100511.86
2023-04-16T01:03:14.475Z,100513.13
2023-04-16T01:05:42.470Z,100517.17
2023-04-16T01:08:18.920Z,100518.00
2023-04-16T01:10:46.792Z,100516.80
2023-04-16T01:13:14.441Z,100511.55
2023-04-16T01:15:42.192Z,100511.89
2023-04-16T01:18:20.989Z,100513.17
2023-04-16T01:20:50.480Z,100508.52
2023-04-16T01:23:19.300Z,100510.27
2023-04-16T01:25:47.129Z,100508.27
2023-04-16T01:28:15.280Z,100511.59
2023-04-16T01:30:44.060Z,100512.48
2023-04-16T01:33:34.870Z,100510.75
2023-04-16T01:36:02.643Z,100511.67
2023-04-16T01:38:30.352Z,100513.33
2023-04-16T01:40:59.163Z,100511.91
2023-04-16T01:43:27.043Z,100511.95
2023-04-16T01:46:14.478Z,100510.00
2023-04-16T01:48:42.638Z,100512.09
2023-04-16T01:51:10.418Z,100508.07
2023-04-16T01:53:38.325Z,100507.73
2023-04-16T01:56:06.527Z,100505.42
2023-04-16T01:58:34.295Z,100505.96
2023-04-16T02:01:02.334Z,100507.96
2023-04-16T02:03:30.997Z,100506.31
2023-04-16T02:05:58.805Z,100503.55
2023-04-16T02:08:27.845Z,100503.14
2023-04-16T02:10:56.730Z,100504.88
2023-04-16T02:13:25.676Z,100507.72
2023-04-16T02:15:53.560Z,100509.64
2023-04-16T02:18:43.542Z,100514.94
2023-04-16T02:21:11.648Z,100511.85
2023-04-16T02:23:40.585Z,100518.16
2023-04-16T02:26:08.330Z,100513.38
2023-04-16T02:28:36.408Z,100512.68
2023-04-16T02:31:06.032Z,100512.14
2023-04-16T02:33:39.407Z,100514.52
2023-04-16T02:36:07.537Z,100514.81
2023-04-16T02:38:37.048Z,100513.97
2023-04-16T02:41:05.079Z,100518.10
2023-04-16T02:43:34.401Z,100515.21
2023-04-16T02:46:02.665Z,100513.34
2023-04-16T02:48:30.467Z,100516.98
2023-04-16T02:50:58.399Z,100507.16
2023-04-16T02:53:25.819Z,100518.59
2023-04-16T02:55:55.035Z,100516.08
2023-04-16T02:58:25.517Z,100517.63
2023-04-16T03:00:54.359Z,100516.29
2023-04-16T03:03:22.134Z,100523.80
2023-04-16T03:05:49.612Z,100528.02
2023-04-16T03:08:17.355Z,100522.83
2023-04-16T03:10:45.298Z,100520.87
2023-04-16T03:13:13.041Z,100524.29
2023-04-16T03:15:40.731Z,100528.22
2023-04-16T03:18:08.462Z,100525.38
2023-04-16T03:20:36.109Z,100527.92
2023-04-16T03:23:03.686Z,100529.42
2023-04-16T03:25:31.516Z,100531.20
2023-04-16T03:27:59.107Z,100530.87
2023-04-16T03:30:26.742Z,100537.85
2023-04-16T03:32:54.362Z,100541.82
2023-04-16T03:35:22.058Z,100536.88
2023-04-16T03:37:50.086Z,100542.05
2023-04-16T03:40:18.004Z,100545.48
2023-04-16T03:42:45.683Z,100542.38
2023-04-16T03:45:13.217Z,100552.31
2023-04-16T03:47:40.973Z,100555.81
2023-04-16T03:50:10.982Z,100555.00
2023-04-16T03:52:39.203Z,100557.43
2023-04-16T03:55:07.521Z,100558.70
2023-04-16T03:57:35.109Z,100557.16
2023-04-16T04:00:08.481Z,100558.09
2023-04-16T04:02:42.108Z,100558.19
2023-04-16T04:05:15.309Z,100569.37
2023-04-16T04:07:43.588Z,100563.05
2023-04-16T04:10:11.453Z,100568.00
2023-04-16T04:12:41.138Z,100568.13
2023-04-16T04:15:09.606Z,100569.79
2023-04-16T04:17:37.292Z,100567.90
2023-04-16T04:20:05.949Z,100564.47
2023-04-16T04:22:33.711Z,100564.94
2023-04-16T04:25:01.161Z,100568.35
2023-04-16T04:27:29.942Z,100565.61
2023-04-16T04:29:57.894Z,100564.05
2023-04-16T04:32:26.096Z,100564.13
2023-04-16T04:34:53.963Z,100569.83
2023-04-16T04:37:21.487Z,100570.52
2023-04-16T04:39:49.092Z,100571.40
2023-04-16T04:42:21.111Z,100567.17
2023-04-16T04:44:48.570Z,100577.34
2023-04-16T04:47:16.385Z,100580.23
2023-04-16T04:49:44.131Z,100576.93
2023-04-16T04:52:11.785Z,100577.31
2023-04-16T04:54:41.210Z,100579.40
2023-04-16T04:57:08.847Z,100581.16
2023-04-16T04:59:36.420Z,100583.59
2023-04-16T05:02:04.079Z,100583.35
2023-04-16T05:04:31.817Z,100582.77
2023-04-16T05:06:59.201Z,100579.27
2023-04-16T05:09:26.847Z,100584.55
2023-04-16T05:11:54.640Z,100580.39
2023-04-16T05:14:22.256Z,100581.42
2023-04-16T05:16:49.820Z,100592.67
2023-04-16T05:19:17.384Z,100591.14
2023-04-16T05:21:44.932Z,100586.06
2023-04-16T05:24:14.789Z,100590.13
2023-04-16T05:26:42.519Z,100594.17
2023-04-16T05:29:10.400Z,100597.12
2023-04-16T05:31:38.328Z,100590.36
2023-04-16T05:34:05.913Z,100593.65
2023-04-16T05:36:33.691Z,100589.48
2023-04-16T05:39:01.032Z,100596.23
2023-04-16T05:41:28.875Z,100590.31
2023-04-16T05:43:56.445Z,100594.00
2023-04-16T05:46:24.082Z,100597.39
2023-04-16T05:48:51.921Z,100604.34
2023-04-16T05:51:21.489Z,100601.56
2023-04-16T05:53:48.981Z,100603.48
2023-04-16T05:56:16.630Z,100604.86
2023-04-16T05:58:44.256Z,100610.09
2023-04-16T06:01:12.016Z,100608.20
2023-04-16T06:03:39.705Z,100604.84
2023-04-16T06:06:08.535Z,100613.60
2023-04-16T06:08:36.190Z,100611.81
2023-04-16T06:11:04.256Z,100612.51
2023-04-16T06:13:32.015Z,100602.19
2023-04-16T06:15:59.499Z,100610.92
2023-04-16T06:18:27.023Z,100619.84
2023-04-16T06:20:54.760Z,100622.69
2023-04-16T06:23:22.367Z,100628.15
2023-04-16T06:25:50.098Z,100630.33
2023-04-16T06:28:17.673Z,100632.54
2023-04-16T06:30:46.775Z,100638.23
2023-04-16T06:33:14.274Z,100640.45
2023-04-16T06:35:41.806Z,100641.55
2023-04-16T06:38:09.290Z,100646.64
2023-04-16T06:40:37.086Z,100640.11
2023-04-16T06:43:05.369Z,100640.39
2023-04-16T06:45:33.093Z,100635.24
2023-04-16T06:48:00.997Z,100627.91
2023-04-16T06:50:28.804Z,100629.98
2023-04-16T06:52:56.652Z,100625.63
2023-04-16T06:55:24.203Z,100621.96
2023-04-16T06:57:51.868Z,100627.05
2023-04-16T07:00:19.579Z,100621.25
2023-04-16T07:02:47.533Z,100627.66
2023-04-16T07:05:15.711Z,100617.99
2023-04-16T07:07:43.530Z,100620.67
2023-04-16T07:10:11.237Z,100619.79
2023-04-16T07:12:39.002Z,100628.51
2023-04-16T07:15:07.690Z,100633.61
2023-04-16T07:17:35.535Z,100631.10
2023-04-16T07:20:03.234Z,100634.67
2023-04-16T07:22:31.118Z,100630.52
2023-04-16T07:24:58.741Z,100635.88
2023-04-16T07:27:26.763Z,100637.95
2023-04-16T07:29:55.294Z,100640.52
2023-04-16T07:32:23.212Z,100632.69
2023-04-16T07:34:50.973Z,100626.80
2023-04-16T07:37:18.647Z,100621.42
2023-04-16T07:39:46.834Z,100620.77
2023-04-16T07:42:14.330Z,100618.02
2023-04-16T07:44:42.630Z,100621.82
2023-04-16T07:47:10.456Z,100623.52
2023-04-16T07:49:38.280Z,100625.80
2023-04-16T07:52:06.103Z,100622.48
2023-04-16T07:54:33.751Z,100627.27
2023-04-16T07:57:02.046Z,100630.55
2023-04-16T07:59:30.257Z,100628.38
2023-04-16T08:01:57.992Z,100628.68
2023-04-16T08:04:26.468Z,100632.92
2023-04-16T08:06:54.567Z,100633.25
2023-04-16T08:09:28.211Z,100637.22
2023-04-16T08:11:55.793Z,100643.11
2023-04-16T08:14:23.482Z,100643.50
2023-04-16T08:16:51.742Z,100642.80
2023-04-16T08:19:19.788Z,100641.45
2023-04-16T08:21:47.449Z,100648.45
2023-04-16T08:24:15.175Z,100646.84
2023-04-16T08:26:42.636Z,100642.14
2023-04-16T08:29:10.650Z,100636.71
2023-04-16T08:31:38.711Z,100631.23
2023-04-16T08:34:06.264Z,100632.61
2023-04-16T08:36:33.956Z,100631.80
2023-04-16T08:39:01.488Z,100631.66
2023-04-16T08:41:32.367Z,100630.23
2023-04-16T08:44:07.278Z,100633.50
2023-04-16T08:46:37.888Z,100635.88
2023-04-16T08:49:07.636Z,100639.21
2023-04-16T08:51:36.105Z,100638.48
2023-04-16T08:54:08.854Z,100640.61
2023-04-16T08:56:42.406Z,100640.59
2023-04-16T08:59:11.362Z,100642.63
2023-04-16T09:01:41.367Z,100642.42
2023-04-16T09:04:09.463Z,100644.11
2023-04-16T09:06:38.459Z,100649.38
2023-04-16T09:09:07.129Z,100648.35
2023-04-16T09:11:35.268Z,100651.86
2023-04-16T09:14:04.192Z,100657.98
2023-04-16T09:16:34.216Z,100653.14
2023-04-16T09:19:02.094Z,100653.54
2023-04-16T09:21:30.155Z,100654.48
2023-04-16T09:23:59.810Z,100654.25
2023-04-16T09:26:27.659Z,100661.65
2023-04-16T09:28:55.559Z,100662.45
2023-04-16T09:31:23.492Z,100663.16
2023-04-16T09:34:08.179Z,100665.95
2023-04-16T09:36:36.694Z,100672.71
2023-04-16T09:39:04.252Z,100673.11
2023-04-16T09:41:35.515Z,100675.66
2023-04-16T09:44:04.624Z,100679.90
2023-04-16T09:46:40.287Z,100688.27
2023-04-16T09:49:15.716Z,100688.41
2023-04-16T09:51:48.018Z,100685.46
2023-04-16T09:54:15.638Z,100690.54
2023-04-16T09:56:46.821Z,100694.19
2023-04-16T09:59:21.916Z,100694.85
2023-04-16T10:01:50.461Z,100692.87
2023-04-16T10:04:18.920Z,100685.19
2023-04-16T10:07:04.502Z,100681.80
2023-04-16T10:09:37.794Z,100678.13
2023-04-16T10:12:06.357Z,100674.91
2023-04-16T10:14:34.808Z,100669.89
2023-04-16T10:17:04.383Z,100676.20
2023-04-16T10:19:33.509Z,100685.77
2023-04-16T10:22:02.431Z,100685.61
2023-04-16T10:24:31.962Z,100675.11
2023-04-16T10:26:59.935Z,100673.84
2023-04-16T10:29:30.333Z,100686.10
2023-04-16T10:31:59.271Z,100688.78
2023-04-16T10:34:28.620Z,100684.58
2023-04-16T10:36:56.231Z,100682.98
2023-04-16T10:39:27.349Z,100687.58
2023-04-16T10:42:27.589Z,100687.89
2023-04-16T10:44:59.688Z,100695.27
2023-04-16T10:47:28.675Z,100692.73
2023-04-16T10:49:57.871Z,100699.41
2023-04-16T10:52:29.115Z,100691.76
2023-04-16T10:54:58.840Z,100695.51
2023-04-16T10:57:29.134Z,100692.77
2023-04-16T10:59:58.824Z,100694.84
2023-04-16T11:02:29.488Z,100692.88
2023-04-16T11:04:58.182Z,100691.74
2023-04-16T11:07:34.625Z,100690.95
2023-04-16T11:10:06.871Z,100689.13
2023-04-16T11:12:42.196Z,100686.73
2023-04-16T11:15:21.017Z,100689.36
2023-04-16T11:17:51.193Z,100691.35
2023-04-16T11:20:28.208Z,100688.71
2023-04-16T11:22:57.658Z,100679.65
2023-04-16T11:25:30.907Z,100685.68
2023-04-16T11:27:58.644Z,100679.33
2023-04-16T11:30:33.652Z,100679.41
2023-04-16T11:33:07.555Z,100687.06
2023-04-16T11:35:35.433Z,100679.02
2023-04-16T11:38:03.662Z,100681.48
2023-04-16T11:40:31.538Z,100693.25
2023-04-16T11:43:12.547Z,100687.43
2023-04-16T11:45:57.989Z,100686.54
2023-04-16T11:48:45.339Z,100688.34
2023-04-16T11:51:12.809Z,100683.79
2023-04-16T11:53:54.271Z,100684.10
2023-04-16T11:56:35.351Z,100686.02
2023-04-16T11:59:15.113Z,100688.46
2023-04-16T12:01:48.505Z,100682.63
2023-04-16T12:04:19.705Z,100679.41
2023-04-16T12:07:13.937Z,100683.23
2023-04-16T12:09:43.032Z,100684.74
2023-04-16T12:12:32.044Z,100681.69
2023-04-16T12:15:04.476Z,100688.50
2023-04-16T12:17:34.339Z,100683.25
2023-04-16T12:20:08.948Z,100677.73
2023-04-16T12:22:39.438Z,100678.90
2023-04-16T12:25:11.294Z,100682.38
2023-04-16T12:27:53.394Z,100681.31
2023-04-16T12:30:24.603Z,100683.13
2023-04-16T12:33:16.053Z,100685.23
2023-04-16T12:35:44.477Z,100685.63
2023-04-16T12:38:14.562Z,100690.10
2023-04-16T12:40:43.003Z,100693.70
2023-04-16T12:43:10.708Z,100691.24
2023-04-16T12:45:40.186Z,100687.70
2023-04-16T12:48:07.877Z,100682.48
2023-04-16T12:50:35.947Z,100680.25
2023-04-16T12:53:03.380Z,100683.14
2023-04-16T12:55:31.051Z,100685.33
2023-04-16T12:57:58.574Z,100680.14
2023-04-16T13:00:26.186Z,100673.64
2023-04-16T13:02:54.096Z,100670.03
2023-04-16T13:05:21.976Z,100667.23
2023-04-16T13:07:49.702Z,100662.06
2023-04-16T13:10:17.306Z,100666.05
2023-04-16T13:12:46.113Z,100663.55
2023-04-16T13:15:13.747Z,100662.21
2023-04-16T13:17:41.304Z,100662.69
2023-04-16T13:20:09.762Z,100662.88
2023-04-16T13:22:37.511Z,100656.48
2023-04-16T13:25:05.941Z,100665.73
2023-04-16T13:27:33.648Z,100661.05
2023-04-16T13:30:01.402Z,100658.89
2023-04-16T13:32:29.201Z,100667.99
2023-04-16T13:34:56.703Z,100668.63
2023-04-16T13:37:24.279Z,100672.05
2023-04-16T13:39:51.864Z,100672.70
2023-04-16T13:42:19.440Z,100673.83
2023-04-16T13:44:48.930Z,100669.61
2023-04-16T13:47:16.634Z,100669.04
2023-04-16T13:49:44.129Z,100661.77
2023-04-16T13:52:11.765Z,100659.08
2023-04-16T13:54:40.138Z,100660.69
2023-04-16T13:57:07.791Z,100664.33
2023-04-16T13:59:35.449Z,100664.55
2023-04-16T14:02:03.171Z,100664.70
2023-04-16T14:04:30.999Z,100662.98
2023-04-16T14:06:58.490Z,100668.44
2023-04-16T14:09:26.071Z,100669.45
2023-04-16T14:11:54.498Z,100674.48
2023-04-16T14:14:22.177Z,100676.95
2023-04-16T14:16:50.284Z,100675.23
2023-04-16T14:19:17.921Z,100677.11
2023-04-16T14:21:45.680Z,100671.77
2023-04-16T14:24:13.245Z,100670.09
2023-04-16T14:26:43.220Z,100673.27
2023-04-16T14:29:11.012Z,100665.29
2023-04-16T14:31:38.635Z,100666.02
2023-04-16T14:34:06.183Z,100666.26
2023-04-16T14:36:33.736Z,100658.15
2023-04-16T14:39:01.568Z,100662.09
2023-04-16T14:41:30.256Z,100662.58
2023-04-16T14:43:59.424Z,100663.11
2023-04-16T14:46:26.927Z,100663.21
2023-04-16T14:48:57.317Z,100661.84
2023-04-16T14:51:25.954Z,100661.59
2023-04-16T14:53:53.518Z,100665.91
2023-04-16T14:56:20.984Z,100676.52
2023-04-16T14:58:48.539Z,100676.95
2023-04-16T15:01:16.172Z,100676.15
2023-04-16T15:03:43.870Z,100676.30
2023-04-16T15:06:11.697Z,100677.50
2023-04-16T15:08:39.353Z,100676.91
2023-04-16T15:11:07.001Z,100680.84
2023-04-16T15:13:34.458Z,100681.61
2023-04-16T15:16:03.914Z,100675.54
2023-04-16T15:18:33.082Z,100676.85
2023-04-16T15:21:00.559Z,100675.19
2023-04-16T15:23:28.219Z,100676.08
2023-04-16T15:25:55.872Z,100670.65
2023-04-16T15:28:23.524Z,100669.83
2023-04-16T15:30:51.979Z,100662.33
2023-04-16T15:33:22.842Z,100671.95
2023-04-16T15:35:51.193Z,100661.84
2023-04-16T15:38:20.876Z,100668.09
2023-04-16T15:40:48.433Z,100678.30
2023-04-16T15:43:16.294Z,100678.20
2023-04-16T15:45:43.908Z,100681.38
2023-04-16T15:48:11.621Z,100683.71
2023-04-16T15:50:39.216Z,100681.02
2023-04-16T15:53:06.812Z,100675.73
2023-04-16T15:55:35.307Z,100682.27
2023-04-16T15:58:03.094Z,100683.98
2023-04-16T16:00:30.695Z,100682.98
2023-04-16T16:02:58.196Z,100680.27
2023-04-16T16:05:26.703Z,100683.11
2023-04-16T16:07:54.390Z,100683.28
2023-04-16T16:10:22.266Z,100685.85
2023-04-16T16:12:50.338Z,100690.14
2023-04-16T16:15:18.063Z,100680.95
2023-04-16T16:17:45.701Z,100679.20
2023-04-16T16:20:14.146Z,100671.11
2023-04-16T16:22:44.737Z,100677.36
2023-04-16T16:25:12.480Z,100672.85
2023-04-16T16:27:41.546Z,100681.71
2023-04-16T16:30:09.926Z,100682.08
2023-04-16T16:32:40.418Z,100687.27
2023-04-16T16:35:08.991Z,100689.81
2023-04-16T16:37:37.116Z,100701.22
2023-04-16T16:40:05.282Z,100706.02
2023-04-16T16:42:32.977Z,100700.65
2023-04-16T16:45:04.630Z,100696.29
2023-04-16T16:47:32.957Z,100696.25
2023-04-16T16:50:02.782Z,100694.13
2023-04-16T16:52:30.768Z,100699.16
2023-04-16T16:54:58.218Z,100702.08
2023-04-16T16:57:25.917Z,100699.07
2023-04-16T16:59:56.516Z,100701.84
2023-04-16T17:02:24.271Z,100700.55
2023-04-16T17:04:52.320Z,100699.23
2023-04-16T17:07:20.448Z,100692.45
2023-04-16T17:09:47.802Z,100701.43
2023-04-16T17:12:15.519Z,100704.24
2023-04-16T17:14:43.213Z,100700.80
2023-04-16T17:17:11.203Z,100708.98
2023-04-16T17:19:38.706Z,100713.21
2023-04-16T17:22:06.172Z,100712.90
2023-04-16T17:24:33.745Z,100718.02
2023-04-16T17:27:01.636Z,100724.52
2023-04-16T17:29:30.125Z,100721.34
2023-04-16T17:31:58.324Z,100722.90
2023-04-16T17:34:25.988Z,100725.09
2023-04-16T17:36:53.528Z,100728.36
2023-04-16T17:39:21.178Z,100729.54
2023-04-16T17:41:53.662Z,100733.80
2023-04-16T17:44:22.565Z,100734.09
2023-04-16T17:46:50.109Z,100732.06
2023-04-16T17:49:17.797Z,100732.63
2023-04-16T17:51:45.434Z,100730.04
2023-04-16T17:54:13.032Z,100726.50
2023-04-16T17:56:40.880Z,100724.64
2023-04-16T17:59:08.243Z,100725.73
2023-04-16T18:01:35.907Z,100724.19
2023-04-16T18:04:03.617Z,100721.91
2023-04-16T18:06:31.362Z,100725.50
2023-04-16T18:08:58.942Z,100726.93
2023-04-16T18:11:26.627Z,100732.50
2023-04-16T18:13:54.164Z,100735.34
2023-04-16T18:16:22.198Z,100732.31
2023-04-16T18:18:49.940Z,100727.48
2023-04-16T18:21:17.602Z,100729.67
2023-04-16T18:23:45.426Z,100728.10
2023-04-16T18:26:12.998Z,100723.77
2023-04-16T18:28:40.538Z,100723.42
2023-04-16T18:31:08.164Z,100724.52
2023-04-16T18:33:53.410Z,100733.29
2023-04-16T18:36:22.805Z,100729.69
2023-04-16T18:39:15.005Z,100728.71
2023-04-16T18:41:39.644Z,100722.79
2023-04-16T18:44:07.265Z,100715.19
2023-04-16T18:46:34.800Z,100711.86
2023-04-16T18:49:02.457Z,100713.88
2023-04-16T18:51:30.319Z,100712.31
2023-04-16T18:53:58.289Z,100713.95
2023-04-16T18:56:25.824Z,100705.39
2023-04-16T18:58:53.677Z,100709.74
2023-04-16T19:01:21.441Z,100703.88
2023-04-16T19:03:49.245Z,100704.90
2023-04-16T19:06:16.850Z,100706.02
2023-04-16T19:08:44.436Z,100712.95
2023-04-16T19:11:12.065Z,100707.09
2023-04-16T19:13:39.641Z,100701.25
2023-04-16T19:16:10.883Z,100707.83
2023-04-16T19:18:38.969Z,100712.34
2023-04-16T19:21:06.726Z,100709.27
2023-04-16T19:23:34.294Z,100713.05
2023-04-16T19:26:01.893Z,100706.48
2023-04-16T19:28:29.354Z,100709.59
2023-04-16T19:30:57.016Z,100709.73
2023-04-16T19:33:24.660Z,100711.35
2023-04-16T19:35:52.332Z,100715.04
2023-04-16T19:38:19.931Z,100711.09
2023-04-16T19:40:48.549Z,100708.70
2023-04-16T19:43:16.098Z,100706.73
2023-04-16T19:45:45.712Z,100707.73
2023-04-16T19:48:13.880Z,100702.34
2023-04-16T19:50:42.131Z,100704.48
2023-04-16T19:53:11.171Z,100703.00
2023-04-16T19:55:39.769Z,100700.98
2023-04-16T19:58:08.376Z,100694.96
2023-04-16T20:00:38.527Z,100686.55
2023-04-16T20:03:06.469Z,100694.83
2023-04-16T20:05:34.157Z,100688.86
2023-04-16T20:08:01.672Z,100690.50
2023-04-16T20:10:30.743Z,100690.67
2023-04-16T20:12:58.184Z,100699.11
2023-04-16T20:15:25.950Z,100696.52
2023-04-16T20:17:54.789Z,100697.03
2023-04-16T20:20:23.247Z,100697.00
2023-04-16T20:22:50.860Z,100701.96
2023-04-16T20:25:19.159Z,100698.00
2023-04-16T20:27:47.028Z,100694.95
2023-04-16T20:30:14.779Z,100697.92
2023-04-16T20:32:42.532Z,100696.06
2023-04-16T20:35:10.725Z,100697.02
2023-04-16T20:37:39.253Z,100698.41
2023-04-16T20:40:08.806Z,100699.31
2023-04-16T20:42:36.162Z,100695.91
2023-04-16T20:45:04.326Z,100695.63
2023-04-16T20:47:34.050Z,100690.16
2023-04-16T20:50:03.198Z,100687.46
2023-04-16T20:52:30.494Z,100685.95
2023-04-16T20:54:57.904Z,100685.09
2023-04-16T20:57:27.588Z,100680.17
2023-04-16T20:59:55.918Z,100684.02
2023-04-16T21:02:23.824Z,100681.79
2023-04-16T21:04:51.808Z,100678.50
2023-04-16T21:07:19.439Z,100683.83
2023-04-16T21:09:46.806Z,100679.06
2023-04-16T21:12:14.484Z,100674.27
2023-04-16T21:14:42.050Z,100674.23
2023-04-16T21:17:09.736Z,100674.51
2023-04-16T21:19:37.404Z,100670.33
2023-04-16T21:22:05.208Z,100672.46
2023-04-16T21:24:32.890Z,100667.98
2023-04-16T21:27:01.322Z,100667.73
2023-04-16T21:29:29.137Z,100673.04
2023-04-16T21:31:56.970Z,100669.56
2023-04-16T21:34:24.418Z,100665.94
2023-04-16T21:36:51.964Z,100659.40
2023-04-16T21:39:21.101Z,100656.12
2023-04-16T21:41:48.666Z,100649.81
2023-04-16T21:44:16.082Z,100646.28
2023-04-16T21:46:43.582Z,100646.99
2023-04-16T21:49:11.594Z,100645.71
2023-04-16T21:51:40.646Z,100639.06
2023-04-16T21:54:08.346Z,100641.91
2023-04-16T21:56:35.853Z,100644.27
2023-04-16T21:59:03.480Z,100646.29
2023-04-16T22:01:31.040Z,100650.80
2023-04-16T22:03:58.777Z,100651.08
2023-04-16T22:06:26.741Z,100649.14
2023-04-16T22:08:54.121Z,100648.93
2023-04-16T22:11:22.108Z,100644.30
2023-04-16T22:13:49.711Z,100643.45
2023-04-16T22:16:17.335Z,100644.71
2023-04-16T22:18:45.812Z,100653.90
2023-04-16T22:21:13.616Z,100653.55
2023-04-16T22:23:41.382Z,100654.91
2023-04-16T22:26:09.071Z,100657.08
2023-04-16T22:28:36.601Z,100660.98
2023-04-16T22:31:04.200Z,100660.36
2023-04-16T22:33:31.919Z,100663.02
2023-04-16T22:36:00.236Z,100660.19
2023-04-16T22:38:27.706Z,100662.39
2023-04-16T22:40:55.338Z,100664.27
2023-04-16T22:43:22.969Z,100669.88
2023-04-16T22:46:01.915Z,100668.91
2023-04-16T22:48:31.033Z,100668.04
2023-04-16T22:50:58.517Z,100664.77
2023-04-16T22:53:26.167Z,100653.27
2023-04-16T22:55:53.684Z,100656.19
2023-04-16T22:58:21.388Z,100654.86
2023-04-16T23:00:51.478Z,100654.61
2023-04-16T23:03:18.985Z,100647.96
2023-04-16T23:05:46.534Z,100648.96
2023-04-16T23:08:13.932Z,100646.70
2023-04-16T23:10:41.432Z,100647.77
2023-04-16T23:13:09.008Z,100644.06
2023-04-16T23:15:36.560Z,100653.59
2023-04-16T23:18:04.167Z,100650.21
2023-04-16T23:20:31.475Z,100647.74
2023-04-16T23:22:58.875Z,100641.75
2023-04-16T23:25:26.454Z,100644.73
2023-04-16T23:27:54.117Z,100639.89
2023-04-16T23:30:21.693Z,100635.33
2023-04-16T23:32:49.333Z,100635.59
2023-04-16T23:35:22.235Z,100634.67
2023-04-16T23:37:49.718Z,100636.80
2023-04-16T23:40:17.335Z,100640.56
2023-04-16T23:42:44.884Z,100634.88
2023-04-16T23:45:12.392Z,100640.20
2023-04-16T23:47:40.258Z,100636.13
2023-04-16T23:50:08.102Z,100639.77
2023-04-16T23:52:35.869Z,100636.38
2023-04-16T23:55:03.893Z,100639.19
2023-04-16T23:57:31.406Z,100639.96
2023-04-16T23:59:59.018Z,100639.88
